KFBG/FBG METAR and TAF weather

Enter ICAO airport designator
Station Type Date Time Source
KFBG METAR 2020/12/06 00:56 UTC NOAA

KFBG 060056Z AUTO 28005KT 10SM CLR 06/M00 A3001 RMK AO2 SLP166 T00601005 $


Station Type Date Time Source
KFBG Decoded METAR 2020/12/06 00:56 UTC NOAA

Fort Bragg / Simmons Army Airfield, NC, United States (KFBG) 35-08N 078-56W 74M
Dec 05, 2020 - 07:56 PM EST / 2020.12.06 0056 UTC
Wind: from the W (280 degrees) at 6 MPH (5 KT):0
Visibility: 10 mile(s):0
Sky conditions: clear
Temperature: 42.8 F (6.0 C)
Dew Point: 31.1 F (-0.5 C)
Relative Humidity: 63%
Pressure (altimeter): 30.01 in. Hg (1016 hPa)
ob: KFBG 060056Z AUTO 28005KT 10SM CLR 06/M00 A3001 RMK AO2 SLP166 T00601005
cycle: 1

Station Type Date Time Source
KFBG TAF 2020/12/05 18:07 UTC NOAA

TAF KFBG 051800Z 0518/0624 31012G18KT 9999 SKC QNH2994INS
BECMG 0521/0522 31006KT 9999 FEW035 QNH2996INS
BECMG 0622/0623 VRB06KT 9999 BKN022 QNH2997INS TX15/0518Z TN02/0612Z

Example: see airport list